Race Coverage Navigation

TS # 39 / Bloomington, IN  2019

 


TS STATS
TS Distance 68.6 
Total Distance 2307.2 
Miles To Go 735.12 
TS Climbing 2286 
Total Climbing
TS  Elevation
TS  Net Elevation 3642 
Map Filename Open Map 
Directions Filename  
Latitude 39.16 
Longitude -86.5 
Google Map  TimeStation Map 


TS Arrival Data
Arr Ord  #/Name Arrival DT TS Dst Avg This TS Avg Overall
 1 377 - Christoph Strasser  06/17/2019 15:31 68.6  14.81  16.15 
 2 279 - Marko Baloh  06/18/2019 13:36 68.6  17.29  13.99 
 3 609 - Jakob Olsen  06/18/2019 18:37 68.6  12.82  13.55 
 4 617 - SOLO.kiwi (Craig Harper)  06/19/2019 10:03 68.6  9.62  12.42 
 5 329 - Peter Oyler  06/19/2019 12:01 68.6  15.89  12.31 
 6 367 - Daniela Genovesi  06/19/2019 12:51 68.6  8.28  12.22 
 7 416 - Leah Goldstein  06/19/2019 14:12 68.6  13.58  12.14 
 8 623 - Ultra Paka Racing Team (Daniel Polman)  06/19/2019 16:04 68.6  13.86  12.02 
 9 622 - Thomas Odom-Team Kyle Pease Foundation  06/19/2019 19:33 68.6  6.55  11.81 
 10 612 - Markus K. Brandl  06/19/2019 20:52 68.6  12.18  11.74 
 11 T411 - team alpha - tischlerei groemmer  06/19/2019 21:01 68.6  21.78  22.69 
 12 T800 - Backstedt Racing Project 14  06/19/2019 21:35 68.6  23.25  22.6 
 13 615 - Philipp Amhof  06/19/2019 23:55 68.6  13.28  11.56 
 14 611 - Marcelo Soares " MIXIRICA "  06/20/2019 0:29 68.6  13.63  11.53 
 15 603 - Alan Bradley  06/20/2019 1:24 68.6  11.97  11.48 
 16 T404 - Gentlemen of speed  06/20/2019 3:32 68.6  19.51  21.3 
 17 T401 - Data Techniques powered by Networks Centre  06/20/2019 4:14 68.6  21.22  21.16 
 18 510 - John C. Tarlton  06/20/2019 6:23 68.6  10.66  11.21 
 19 T805 - Team Oceanside  06/20/2019 8:35 68.6  20.68  20.41 
 20 T807 - Team ZOE International  06/20/2019 9:28 68.6  21.22  20.26 
 21 T407 - Julian Becker   06/20/2019 9:40 68.6  22.13  20.17 
 22 411 - Geoff Brunner  06/20/2019 9:43 68.6  7.85  11.03 
 23 442 - Joe Barr  06/20/2019 10:05 68.6  8.22  11.01 
 24 559 - Team Martin RAAM 2019 (Martin Bergmeister)  06/20/2019 10:10 68.6  6.27  11 
 25 T201 - EAT WELL  06/20/2019 10:24 68.6  18.79  20 
 26 529 - Isa Pulver  06/20/2019 11:18 68.6  16.4  10.92 
 27 T802 - Scorchers  06/20/2019 11:24 68.6  22.01  19.91 
 28 568 - Alexandra Meixner  06/20/2019 12:23 68.6  12.94  10.87 
 29 T416 - Team Rotary Raams Polio  06/20/2019 13:20 68.6  19.6  19.57 
 30 T804 - Team FSHD Skyland Trail  06/20/2019 14:33 68.6  16.2  19.39 
 31 T408 - Radeln-fuer-Kinder (Cycling-for-Kids)  06/20/2019 14:39 68.6  19.79  19.33 
 32 610 - Kabir Rachure  06/20/2019 14:56 68.6  12.32  10.75 
 33 604 - Chieko Ozawa  06/20/2019 15:21 68.6  13.11  10.72 
 34 618 - GREGORY ROBINSON  06/20/2019 15:58 68.6  14.14  10.69 
 35 T400 - Cantastic4  06/20/2019 16:19 68.6  20.58  19.04 
 36 T808 - Antonia's Friends 2019  06/20/2019 17:21 68.6  20.89  18.95 
 37 T406 - Operation Walk Midwest  06/20/2019 18:27 68.6  20.08  18.73 
 38 T418 - The Opportunists  06/20/2019 20:12 68.6  20.58  18.5 
 39 399 - Valerio Zamboni  06/20/2019 21:39 68.6  10.69  10.44 
 40 T410 - Soap-Aid  06/21/2019 1:19 68.6  16.53  17.75 
 41 424 - Team i RON man Veterans supporting Veterans  06/21/2019 2:19 68.6  11.9  10.22 
 42 T803 - Team EndoPark  06/21/2019 4:31 68.6  16.02  17.35 
 43 T414 - Brazil Nuts  06/21/2019 5:03 68.6  14.44  17.26 
 44 T405 - High Rollers  06/21/2019 5:30 68.6  17.82  17.19 
 45 T412 - Team Aspect  06/21/2019 6:15 68.6  8.49  17.11 
 46 T202 - Integra Medical - BAA Racing  06/21/2019 6:15 68.6  13.95  17.06 
 47 T415 - TEAM FIRE VELO 935  06/21/2019 7:03 68.6  16.73  17.01 
 48 161 - Seana Hogan  06/21/2019 7:20 68.6  6.24  9.98 
 49 T206 - Project Linear Acceleration  06/21/2019 9:56 68.6  15.19  16.62 
 50 T413 - TEAM BRASIL - SKIPPER  06/21/2019 10:23 68.6  14.97  16.6 
 51 T204 - Lucan CRC  06/21/2019 10:41 68.6  13.23  16.53 
 52 T402 - EA/WFP RAAM Team  06/21/2019 11:07 68.6  16.94  16.49 
 53 T806 - Team SuperMarrow  06/21/2019 13:03 68.6  15.71  16.31 
 54 T801 - Mind Over Matter  06/21/2019 14:05 68.6  4116  16.18 
 55 T200 - AIR RELAX GoPro TEAM BRASIL  06/21/2019 14:39 68.6  18.13  16.06 
 56 T417 - Team4RAAM 2019 powered by TGW Living Logistics  06/21/2019 15:56 68.6  16.27  15.97 
 57 T403 - EKJ Denmark  06/21/2019 18:01 68.6  13.5  15.72 
 58 608 - Elin Starup  06/21/2019 20:05 68.6  10.24  9.45 
 59 T409 - Serpentine Golden Girls  06/22/2019 4:13 68.6  14.6  14.7 
 60 T207 - Team Life Time  06/22/2019 11:18 68.6  13.91  14.05 
 61 T203 - JPsDuo  06/22/2019 12:36 68.6  8.61  13.94 
 62 T210 - Bike Wine Team  06/22/2019 14:25 68.6  14.6  13.79